createdAt,value
2022-11-17T00:00:53.036Z,70.09
2022-11-17T00:05:56.118Z,70.05
2022-11-17T00:11:02.633Z,70.20
2022-11-17T00:16:05.993Z,70.28
2022-11-17T00:21:23.895Z,70.17
2022-11-17T00:26:35.119Z,70.17
2022-11-17T00:31:57.387Z,70.14
2022-11-17T00:37:00.386Z,69.98
2022-11-17T00:42:03.919Z,70.38
2022-11-17T00:47:06.934Z,70.26
2022-11-17T00:52:10.048Z,70.41
2022-11-17T00:57:13.056Z,70.51
2022-11-17T01:02:16.244Z,70.45
2022-11-17T01:07:19.494Z,70.47
2022-11-17T01:12:22.735Z,70.38
2022-11-17T01:17:25.709Z,70.37
2022-11-17T01:22:28.671Z,70.33
2022-11-17T01:27:31.657Z,70.58
2022-11-17T01:32:34.607Z,70.52
2022-11-17T01:37:37.756Z,70.61
2022-11-17T01:42:40.841Z,70.70
2022-11-17T01:47:54.401Z,70.75
2022-11-17T01:53:01.227Z,70.39
2022-11-17T01:58:12.365Z,70.54
2022-11-17T02:03:15.730Z,70.51
2022-11-17T02:08:22.455Z,70.46
2022-11-17T02:13:25.526Z,70.38
2022-11-17T02:18:28.850Z,70.69
2022-11-17T02:23:51.996Z,70.60
2022-11-17T02:29:03.699Z,70.63
2022-11-17T02:34:18.727Z,70.69
2022-11-17T02:39:26.505Z,70.70
2022-11-17T02:44:39.935Z,70.33
2022-11-17T02:49:55.631Z,70.20
2022-11-17T02:55:04.151Z,70.37
2022-11-17T03:00:10.396Z,70.12
2022-11-17T03:05:27.855Z,70.15
2022-11-17T03:10:49.955Z,70.06
2022-11-17T03:16:08.225Z,70.19
2022-11-17T03:21:22.167Z,70.37
2022-11-17T03:26:38.207Z,70.24
2022-11-17T03:31:43.393Z,70.57
2022-11-17T03:36:51.278Z,70.57
2022-11-17T03:42:00.101Z,70.37
2022-11-17T03:47:08.798Z,70.42
2022-11-17T03:52:12.013Z,70.70
2022-11-17T03:57:53.260Z,71.45
2022-11-17T04:02:59.031Z,71.03
2022-11-17T04:08:02.173Z,71.07
2022-11-17T04:13:23.850Z,70.88
2022-11-17T04:18:27.250Z,70.90
2022-11-17T04:23:30.175Z,70.65
2022-11-17T04:28:38.214Z,70.67
2022-11-17T04:33:45.617Z,70.85
2022-11-17T04:38:51.005Z,70.55
2022-11-17T04:43:54.630Z,70.66
2022-11-17T04:48:58.402Z,70.70
2022-11-17T04:54:02.345Z,71.04
2022-11-17T04:59:05.449Z,71.06
2022-11-17T05:04:11.125Z,70.67
2022-11-17T05:09:15.139Z,70.21
2022-11-17T05:14:20.892Z,70.08
2022-11-17T05:19:24.921Z,70.06
2022-11-17T05:24:28.185Z,70.32
2022-11-17T05:29:31.149Z,69.90
2022-11-17T05:34:34.109Z,70.04
2022-11-17T05:39:37.158Z,70.20
2022-11-17T05:44:40.221Z,70.32
2022-11-17T05:49:43.323Z,70.35
2022-11-17T05:54:46.217Z,70.06
2022-11-17T05:59:55.050Z,69.90
2022-11-17T06:04:59.017Z,69.72
2022-11-17T06:10:03.560Z,69.65
2022-11-17T06:15:06.871Z,69.89
2022-11-17T06:20:17.350Z,69.66
2022-11-17T06:25:20.925Z,69.54
2022-11-17T06:30:23.933Z,69.44
2022-11-17T06:35:28.941Z,69.64
2022-11-17T06:40:32.124Z,69.30
2022-11-17T06:45:44.046Z,69.27
2022-11-17T06:50:48.526Z,69.19
2022-11-17T06:55:59.326Z,69.38
2022-11-17T07:01:06.086Z,69.08
2022-11-17T07:06:11.173Z,69.36
2022-11-17T07:11:16.709Z,69.53
2022-11-17T07:16:23.826Z,69.64
2022-11-17T07:21:27.356Z,69.51
2022-11-17T07:26:30.517Z,69.73
2022-11-17T07:31:36.682Z,69.66
2022-11-17T07:36:39.609Z,69.38
2022-11-17T07:41:42.688Z,69.14
2022-11-17T07:46:45.791Z,69.20
2022-11-17T07:51:48.801Z,69.22
2022-11-17T07:56:51.786Z,69.25
2022-11-17T08:01:54.753Z,69.25
2022-11-17T08:06:57.873Z,68.99
2022-11-17T08:12:00.991Z,69.45
2022-11-17T08:17:04.540Z,69.47
2022-11-17T08:22:07.633Z,69.55
2022-11-17T08:27:10.628Z,68.93
2022-11-17T08:32:13.681Z,69.29
2022-11-17T08:37:16.599Z,69.32
2022-11-17T08:42:19.531Z,69.39
2022-11-17T08:47:22.622Z,69.49
2022-11-17T08:52:28.164Z,69.25
2022-11-17T08:57:31.993Z,69.06
2022-11-17T09:02:34.986Z,69.20
2022-11-17T09:07:38.015Z,68.79
2022-11-17T09:12:41.347Z,69.04
2022-11-17T09:17:47.833Z,69.35
2022-11-17T09:22:50.954Z,69.12
2022-11-17T09:27:54.128Z,68.81
2022-11-17T09:32:58.013Z,69.05
2022-11-17T09:38:01.890Z,68.84
2022-11-17T09:43:16.474Z,68.90
2022-11-17T09:48:41.166Z,69.16
2022-11-17T09:54:13.823Z,69.12
2022-11-17T09:59:20.958Z,68.83
2022-11-17T10:04:29.583Z,68.53
2022-11-17T10:09:44.363Z,68.48
2022-11-17T10:14:51.297Z,68.23
2022-11-17T10:19:54.367Z,68.56
2022-11-17T10:24:58.841Z,68.36
2022-11-17T10:30:07.317Z,68.44
2022-11-17T10:35:31.166Z,68.01
2022-11-17T10:40:39.981Z,67.76
2022-11-17T10:45:56.695Z,68.33
2022-11-17T10:51:09.281Z,68.28
2022-11-17T10:56:16.039Z,68.43
2022-11-17T11:01:32.531Z,67.94
2022-11-17T11:06:35.945Z,67.45
2022-11-17T11:11:56.488Z,67.78
2022-11-17T11:16:59.895Z,67.55
2022-11-17T11:22:45.906Z,67.25
2022-11-17T11:28:14.959Z,67.66
2022-11-17T11:33:33.417Z,67.21
2022-11-17T11:38:55.308Z,67.31
2022-11-17T11:44:19.852Z,67.03
2022-11-17T11:49:54.549Z,67.28
2022-11-17T11:55:05.871Z,66.94
2022-11-17T12:00:16.841Z,66.97
2022-11-17T12:05:29.334Z,67.13
2022-11-17T12:10:38.832Z,67.08
2022-11-17T12:15:41.870Z,66.75
2022-11-17T12:20:49.908Z,66.62
2022-11-17T12:25:57.403Z,66.26
2022-11-17T12:31:11.710Z,66.61
2022-11-17T12:36:29.715Z,66.73
2022-11-17T12:41:48.935Z,66.68
2022-11-17T12:47:02.778Z,66.99
2022-11-17T12:52:15.718Z,66.67
2022-11-17T12:57:30.475Z,66.70
2022-11-17T13:02:53.282Z,66.92
2022-11-17T13:08:20.528Z,66.85
2022-11-17T13:13:24.712Z,66.62
2022-11-17T13:18:33.243Z,66.39
2022-11-17T13:23:44.575Z,66.25
2022-11-17T13:28:49.292Z,66.12
2022-11-17T13:34:10.443Z,65.88
2022-11-17T13:39:17.150Z,65.73
2022-11-17T13:44:25.619Z,65.62
2022-11-17T13:49:39.374Z,65.59
2022-11-17T13:54:44.914Z,66.01
2022-11-17T13:59:48.132Z,65.96
2022-11-17T14:05:08.187Z,66.07
2022-11-17T14:10:20.979Z,65.89
2022-11-17T14:15:49.130Z,66.29
2022-11-17T14:21:05.308Z,66.17
2022-11-17T14:26:34.357Z,66.46
2022-11-17T14:31:37.305Z,66.02
2022-11-17T14:36:41.284Z,65.93
2022-11-17T14:41:45.753Z,66.00
2022-11-17T14:46:48.832Z,66.06
2022-11-17T14:51:51.881Z,65.89
2022-11-17T14:56:54.810Z,66.17
2022-11-17T15:01:57.877Z,66.28
2022-11-17T15:07:00.940Z,66.86
2022-11-17T15:12:04.298Z,66.99
2022-11-17T15:17:11.171Z,67.02
2022-11-17T15:22:17.112Z,67.02
2022-11-17T15:27:20.059Z,66.78
2022-11-17T15:32:22.990Z,66.59
2022-11-17T15:37:26.049Z,66.52
2022-11-17T15:42:29.057Z,66.41
2022-11-17T15:47:32.276Z,66.21
2022-11-17T15:52:57.066Z,66.37
2022-11-17T15:57:58.282Z,66.66
2022-11-17T16:03:01.976Z,67.04
2022-11-17T16:08:05.208Z,66.71
2022-11-17T16:13:08.195Z,66.49
2022-11-17T16:18:11.200Z,66.63
2022-11-17T16:23:15.486Z,66.76
2022-11-17T16:28:18.464Z,66.70
2022-11-17T16:33:21.557Z,66.33
2022-11-17T16:38:24.570Z,66.10
2022-11-17T16:43:29.318Z,65.93
2022-11-17T16:48:33.874Z,65.88
2022-11-17T16:53:36.914Z,66.31
2022-11-17T16:58:40.355Z,65.95
2022-11-17T17:03:43.802Z,65.89
2022-11-17T17:08:46.870Z,66.13
2022-11-17T17:13:50.144Z,66.48
2022-11-17T17:18:59.655Z,66.46
2022-11-17T17:24:03.377Z,66.61
2022-11-17T17:29:07.538Z,66.64
2022-11-17T17:34:12.224Z,66.47
2022-11-17T17:39:18.322Z,66.31
2022-11-17T17:44:21.513Z,66.17
2022-11-17T17:49:24.458Z,66.18
2022-11-17T17:54:27.485Z,66.71
2022-11-17T17:59:30.457Z,66.22
2022-11-17T18:04:33.584Z,65.91
2022-11-17T18:09:36.581Z,66.29
2022-11-17T18:14:41.515Z,66.24
2022-11-17T18:19:44.472Z,66.36
2022-11-17T18:24:47.419Z,66.34
2022-11-17T18:29:50.425Z,66.13
2022-11-17T18:34:53.367Z,66.29
2022-11-17T18:39:56.559Z,66.17
2022-11-17T18:44:59.548Z,66.36
2022-11-17T18:50:02.464Z,66.69
2022-11-17T18:55:06.070Z,65.95
2022-11-17T19:00:09.637Z,65.72
2022-11-17T19:05:12.639Z,66.00
2022-11-17T19:10:16.574Z,65.96
2022-11-17T19:15:19.511Z,65.84
2022-11-17T19:20:22.676Z,65.90
2022-11-17T19:25:25.614Z,66.21
2022-11-17T19:30:28.606Z,66.16
2022-11-17T19:35:31.555Z,66.03
2022-11-17T19:40:35.017Z,66.23
2022-11-17T19:45:37.936Z,67.09
2022-11-17T19:50:40.845Z,66.26
2022-11-17T19:55:43.804Z,66.29
2022-11-17T20:00:48.776Z,66.26
2022-11-17T20:05:51.778Z,65.97
2022-11-17T20:11:03.180Z,65.53
2022-11-17T20:16:11.945Z,66.07
2022-11-17T20:21:15.518Z,66.00
2022-11-17T20:26:21.441Z,66.01
2022-11-17T20:31:27.209Z,65.80
2022-11-17T20:36:32.908Z,66.17
2022-11-17T20:41:35.989Z,66.31
2022-11-17T20:46:39.027Z,66.48
2022-11-17T20:51:42.180Z,65.84
2022-11-17T20:56:45.119Z,65.67
2022-11-17T21:01:49.430Z,66.08
2022-11-17T21:06:52.527Z,65.69
2022-11-17T21:11:58.456Z,65.50
2022-11-17T21:17:01.753Z,65.64
2022-11-17T21:22:04.868Z,65.71
2022-11-17T21:27:07.894Z,65.81
2022-11-17T21:32:10.941Z,65.82
2022-11-17T21:37:13.945Z,65.80
2022-11-17T21:42:16.911Z,65.88
2022-11-17T21:47:21.655Z,65.76
2022-11-17T21:52:24.585Z,65.98
2022-11-17T21:57:27.556Z,66.06
2022-11-17T22:02:30.505Z,65.71
2022-11-17T22:07:33.520Z,65.79
2022-11-17T22:12:36.487Z,65.94
2022-11-17T22:17:39.456Z,65.92
2022-11-17T22:22:42.453Z,65.95
2022-11-17T22:27:45.391Z,65.69
2022-11-17T22:32:48.378Z,65.74
2022-11-17T22:37:51.337Z,65.66
2022-11-17T22:42:54.494Z,65.59
2022-11-17T22:47:57.397Z,65.14
2022-11-17T22:53:01.361Z,65.21
2022-11-17T22:58:04.495Z,65.25
2022-11-17T23:03:07.476Z,65.13
2022-11-17T23:08:10.455Z,65.35
2022-11-17T23:13:13.518Z,65.37
2022-11-17T23:18:16.613Z,65.32
2022-11-17T23:23:19.671Z,65.36
2022-11-17T23:28:22.633Z,65.33
2022-11-17T23:33:25.872Z,65.52
2022-11-17T23:38:31.076Z,65.40
2022-11-17T23:43:34.194Z,65.57
2022-11-17T23:48:37.429Z,65.61
2022-11-17T23:53:40.725Z,65.15
2022-11-17T23:58:44.307Z,64.70
